Date,TemperatureHighF,TemperatureAvgF,TemperatureLowF,DewpointHighF,DewpointAvgF,DewpointLowF,HumidityHigh,HumidityAvg,HumidityLow,PressureMaxIn,PressureMinIn,WindSpeedMaxMPH,WindSpeedAvgMPH,GustSpeedMaxMPH,PrecipitationSumIn
2013-2-1,52.0,32.9,13.0,32.0,21.5,3.0,84,65,38,30.38,30.05,10,3,15,0.00
2013-2-2,53.0,39.0,25.0,31.0,26.0,21.0,93,65,29,30.26,30.13,18,7,31,0.00
2013-2-3,53.0,35.9,19.0,29.0,23.3,16.0,90,64,34,30.26,29.83,12,3,22,0.00
2013-2-4,55.0,38.3,25.0,30.0,25.1,19.0,86,62,29,29.97,29.80,9,2,15,0.00
2013-2-5,55.0,38.8,23.0,31.0,23.8,19.0,86,59,30,30.05,29.85,8,2,16,0.00
2013-2-6,63.0,47.0,38.0,37.0,30.3,27.0,70,54,27,29.96,29.70,9,4,20,0.00
2013-2-7,54.0,40.6,27.0,32.0,23.8,14.0,89,55,23,30.17,29.91,9,3,16,0.00
2013-2-8,48.0,33.4,19.0,32.0,25.5,17.0,93,74,49,30.19,29.90,12,5,27,0.00
2013-2-9,49.0,38.3,25.0,40.0,30.5,21.0,93,75,47,29.92,29.41,12,6,27,0.07
2013-2-10,39.0,31.5,26.0,37.0,27.4,20.0,96,85,73,30.02,29.22,21,10,38,0.19
2013-2-11,35.0,25.8,17.0,21.0,17.5,12.0,83,71,50,30.23,30.01,10,4,19,0.02
2013-2-12,42.0,28.6,16.0,22.0,17.9,12.0,86,66,38,30.17,30.02,10,3,16,0.03
2013-2-13,51.0,36.9,23.0,32.0,24.5,18.0,84,63,39,30.02,29.83,14,7,22,0.02
2013-2-14,39.0,32.4,23.0,31.0,24.1,17.0,90,72,46,30.36,29.95,17,5,29,0.01
2013-2-15,34.0,23.0,12.0,21.0,13.6,8.0,91,70,40,30.43,30.36,12,3,23,0.00
2013-2-16,56.0,35.2,14.0,31.0,22.7,9.0,82,63,37,30.40,29.94,12,3,23,0.00
2013-2-17,62.0,40.0,22.0,31.0,22.9,19.0,91,59,20,29.95,29.53,15,2,27,0.00
2013-2-18,42.0,35.8,25.0,30.0,22.2,16.0,81,58,40,30.15,29.58,16,10,28,0.00
2013-2-19,36.0,23.5,13.0,20.0,11.6,3.0,86,62,39,30.35,30.15,6,2,13,0.00
2013-2-20,23.0,17.8,12.0,21.0,10.8,2.0,92,74,48,30.28,30.07,9,5,16,0.00
2013-2-21,18.0,17.3,14.0,16.0,15.2,12.0,92,91,89,30.12,29.98,7,4,14,0.00
2013-2-22,25.0,13.2,3.0,21.0,10.1,0.0,91,88,83,30.17,30.04,6,2,11,0.08
2013-2-23,37.0,18.1,0.0,29.0,13.9,-3.0,92,84,67,30.08,29.85,7,1,10,0.15
2013-2-24,35.0,24.8,13.0,30.0,21.4,11.0,95,87,73,30.15,29.89,6,2,13,0.05
2013-2-25,37.0,30.8,16.0,31.0,25.9,12.0,95,82,64,30.15,29.95,6,2,11,0.07
2013-2-26,39.0,21.5,6.0,28.0,16.1,4.0,93,81,47,30.07,29.91,4,1,8,0.01
2013-2-27,33.0,29.5,22.0,28.0,24.2,19.0,89,81,74,30.24,30.06,12,6,20,0.00
2013-2-28,38.0,27.6,18.0,29.0,23.1,16.0,92,83,67,30.33,30.24,6,2,12,0.00